Terminal Aerodrome Forecast
Issued by NWS

Current Version | Previous Version | Text Only | Print | Product List | Glossary On
Versions: 1 2 3 4 5 6 7 8 9 10 11 12 13 14 15 16 17
323
FTUS46 KMTR 062340
TAFOAK
TAF
KOAK 062340Z 0700/0806 24009KT P6SM VCSH BKN021 OVC025
     FM070300 27008KT P6SM SCT025 BKN100
     FM070600 28013KT P6SM BKN020
     FM071300 26013G18KT P6SM -SHRA BKN025 OVC060
     FM072100 23008KT P6SM VCSH SCT025 BKN080
     FM080300 29006KT P6SM SCT040 OVC100=

USA.gov is the U.S. government's official web portal to all federal, state and local government web resources and services.